Time;durP1;ratioP1;P1;durP2;ratioP2;P2;SDS_P1;SDS_P2;PMS_P1;PMS_P2;Temp;Humidity;BMP_temperature;BMP_pressure;BME280_temperature;BME280_humidity;BME280_pressure;Samples;Min_cycle;Max_cycle;Signal;HPM_P1;HPM_P2
2022/11/03 00:00:04;;;;;;;15.20;1.83;;;;;;;12.63;100.00;101201.75;5090010;28;19920;-66
2022/11/03 00:02:29;;;;;;;10.32;1.75;;;;;;;12.57;100.00;101185.81;5090147;28;20028;-66
2022/11/03 00:04:55;;;;;;;17.25;2.20;;;;;;;12.58;100.00;101184.97;5088440;28;20032;-66
2022/11/03 00:07:20;;;;;;;14.15;1.90;;;;;;;12.64;100.00;101174.47;5081962;28;20177;-65
2022/11/03 00:09:46;;;;;;;9.25;1.67;;;;;;;12.58;100.00;101174.41;5089553;28;20027;-65
2022/11/03 00:12:11;;;;;;;6.30;1.70;;;;;;;12.58;100.00;101187.59;5086655;28;20080;-65
2022/11/03 00:14:36;;;;;;;20.27;2.83;;;;;;;12.53;100.00;101184.00;5093009;28;20051;-65
2022/11/03 00:17:02;;;;;;;14.40;2.95;;;;;;;12.48;100.00;101166.34;5073667;28;20036;-65
2022/11/03 00:19:27;;;;;;;10.00;2.55;;;;;;;12.47;100.00;101169.84;5076829;28;20020;-64
2022/11/03 00:21:53;;;;;;;12.32;2.45;;;;;;;12.45;100.00;101161.06;5082516;28;20028;-65
2022/11/03 00:24:18;;;;;;;11.32;1.85;;;;;;;12.45;100.00;101170.69;5083164;28;20436;-65
2022/11/03 00:26:43;;;;;;;6.40;1.77;;;;;;;12.48;100.00;101183.97;5082474;28;20024;-66
2022/11/03 00:29:12;;;;;;;8.93;2.50;;;;;;;12.49;100.00;101169.88;5086226;28;20023;-65
2022/11/03 00:31:39;;;;;;;17.40;2.28;;;;;;;12.42;100.00;101171.53;5084578;28;20449;-65
2022/11/03 00:34:06;;;;;;;19.63;3.97;;;;;;;12.46;100.00;101173.34;5080944;28;20035;-66
2022/11/03 00:36:42;;;;;;;14.68;2.65;;;;;;;12.46;100.00;101162.78;5079083;28;20089;-65
2022/11/03 00:39:08;;;;;;;18.67;2.60;;;;;;;12.45;100.00;101160.13;5075711;28;20431;-64
2022/11/03 00:41:34;;;;;;;15.63;2.28;;;;;;;12.50;100.00;101152.31;5080662;28;20043;-65
2022/11/03 00:43:59;;;;;;;17.65;2.65;;;;;;;12.53;100.00;101147.06;5084271;28;20056;-66
2022/11/03 00:46:25;;;;;;;13.40;2.20;;;;;;;12.52;100.00;101162.03;5077337;28;20020;-65
2022/11/03 00:48:51;;;;;;;9.93;2.60;;;;;;;12.49;100.00;101151.41;5081709;28;20024;-66
2022/11/03 00:51:22;;;;;;;13.25;2.63;;;;;;;12.50;100.00;101147.03;5083037;28;20027;-66
2022/11/03 00:53:53;;;;;;;21.00;3.03;;;;;;;12.48;100.00;101155.81;5074925;28;20109;-66
2022/11/03 00:56:23;;;;;;;17.00;2.75;;;;;;;12.50;100.00;101149.66;5087368;28;20085;-66
2022/11/03 00:58:50;;;;;;;19.27;2.28;;;;;;;12.51;100.00;101139.13;5084737;28;20020;-65
2022/11/03 01:01:18;;;;;;;16.20;2.65;;;;;;;12.45;100.00;101128.47;5079360;28;20399;-66
2022/11/03 01:06:50;;;;;;;12.07;2.42;;;;;;;12.45;100.00;101136.38;5088424;28;20117;-66
2022/11/03 01:09:19;;;;;;;21.98;2.97;;;;;;;12.44;100.00;101129.34;5072697;28;20040;-66
2022/11/03 01:11:56;;;;;;;7.80;1.95;;;;;;;12.44;100.00;101126.72;5075894;28;20463;-67
2022/11/03 01:14:23;;;;;;;10.50;3.50;;;;;;;12.39;100.00;101139.84;5080701;28;20039;-67
2022/11/03 01:16:48;;;;;;;11.15;2.10;;;;;;;12.42;100.00;101129.31;5089446;28;20028;-65
2022/11/03 01:19:14;;;;;;;11.90;3.55;;;;;;;12.44;100.00;101124.94;5076876;28;20028;-65
2022/11/03 01:21:39;;;;;;;8.38;2.47;;;;;;;12.43;100.00;101117.91;5080172;28;20032;-66
2022/11/03 01:24:05;;;;;;;9.52;2.03;;;;;;;12.38;100.00;101110.78;5084268;28;20094;-66
2022/11/03 01:26:31;;;;;;;13.25;2.13;;;;;;;12.41;100.00;101100.25;5079702;28;20028;-65
2022/11/03 01:28:58;;;;;;;20.55;2.45;;;;;;;12.40;100.00;101104.66;5079406;28;20016;-67
2022/11/03 01:31:25;;;;;;;11.52;2.13;;;;;;;12.36;100.00;101101.94;5084833;28;20032;-66
2022/11/03 01:33:52;;;;;;;15.80;2.40;;;;;;;12.44;100.00;101097.69;5081805;28;20044;-66
2022/11/03 01:36:18;;;;;;;20.73;2.60;;;;;;;12.42;100.00;101096.75;5084002;28;20032;-65
2022/11/03 01:38:44;;;;;;;18.45;2.67;;;;;;;12.42;100.00;101086.22;5085250;28;20024;-66
2022/11/03 01:41:14;;;;;;;9.57;1.73;;;;;;;12.37;100.00;101083.53;5081844;28;20022;-66
2022/11/03 01:43:40;;;;;;;13.00;1.83;;;;;;;12.40;100.00;101087.94;5088669;28;20024;-65
2022/11/03 01:46:26;;;;;;;13.32;2.78;;;;;;;12.35;100.00;101093.16;5084956;28;20028;-66
2022/11/03 01:48:54;;;;;;;15.00;2.63;;;;;;;12.34;100.00;101082.59;5075420;28;20073;-66
2022/11/03 01:51:22;;;;;;;16.38;2.00;;;;;;;12.34;100.00;101083.47;5088914;28;20472;-66
2022/11/03 01:53:49;;;;;;;13.50;2.20;;;;;;;12.32;100.00;101079.94;5080956;28;20407;-65
2022/11/03 01:56:15;;;;;;;19.13;1.90;;;;;;;12.36;100.00;101072.91;5079703;28;20038;-66
2022/11/03 01:58:43;;;;;;;15.30;2.33;;;;;;;12.36;100.00;101071.19;5086002;28;20069;-67
2022/11/03 02:01:09;;;;;;;10.98;2.60;;;;;;;12.32;100.00;101080.81;5081468;28;20060;-66
2022/11/03 02:03:41;;;;;;;13.07;2.63;;;;;;;12.31;100.00;101078.16;5088194;28;20031;-66
2022/11/03 02:06:07;;;;;;;9.25;2.13;;;;;;;12.27;100.00;101066.66;5077889;28;20024;-65
2022/11/03 02:08:35;;;;;;;10.57;2.70;;;;;;;12.30;100.00;101063.19;5083266;28;20430;-65
2022/11/03 02:12:05;;;;;;;15.88;2.35;;;;;;;12.36;100.00;101054.44;5076081;28;20029;-66
2022/11/03 02:13:45;;;;;;;16.45;2.50;;;;;;;12.37;100.00;101062.41;5081377;28;20426;-66
2022/11/03 02:16:11;;;;;;;6.82;2.13;;;;;;;12.39;100.00;101050.09;5073920;28;20024;-65
2022/11/03 02:18:38;;;;;;;11.10;2.30;;;;;;;12.38;100.00;101044.81;5075122;28;20032;-66
2022/11/03 02:21:30;;;;;;;14.48;3.13;;;;;;;12.36;100.00;101028.97;5076389;28;20021;-65
2022/11/03 02:24:35;;;;;;;18.83;2.38;;;;;;;12.33;100.00;101034.22;5088152;28;20349;-66
2022/11/03 02:27:00;;;;;;;5.80;1.40;;;;;;;12.31;100.00;101023.63;5086056;28;20028;-66
2022/11/03 02:29:25;;;;;;;9.18;2.00;;;;;;;12.34;100.00;101025.41;5075470;28;20028;-67
2022/11/03 02:32:01;;;;;;;9.38;1.88;;;;;;;12.31;100.00;101023.63;5078732;28;20150;-65
2022/11/03 02:34:54;;;;;;;14.32;1.90;;;;;;;12.34;100.00;101013.97;5084409;28;20016;-66
2022/11/03 02:37:24;;;;;;;10.90;1.75;;;;;;;12.39;100.00;101010.53;5053951;28;20424;-66
2022/11/03 02:39:55;;;;;;;12.77;2.20;;;;;;;12.36;100.00;101006.94;5083206;28;20021;-66
2022/11/03 02:42:24;;;;;;;13.43;1.98;;;;;;;12.34;100.00;101001.66;5085450;28;20030;-66
2022/11/03 02:44:50;;;;;;;12.70;2.35;;;;;;;12.35;100.00;101000.81;5083620;28;20409;-67
2022/11/03 02:47:17;;;;;;;8.57;2.10;;;;;;;12.36;100.00;100992.03;5080207;28;20028;-66
2022/11/03 02:49:47;;;;;;;18.30;2.30;;;;;;;12.40;100.00;100985.91;5084794;28;20020;-65
2022/11/03 02:52:48;;;;;;;9.02;2.28;;;;;;;12.36;100.00;100976.19;5090590;28;20038;-65
2022/11/03 02:55:13;;;;;;;11.77;2.60;;;;;;;12.31;100.00;100962.06;5090191;28;20485;-65
2022/11/03 02:57:46;;;;;;;16.77;2.25;;;;;;;12.28;100.00;100957.63;5085851;28;20036;-66
2022/11/03 03:00:12;;;;;;;14.77;2.03;;;;;;;12.26;100.00;100963.75;5082661;28;20045;-66
2022/11/03 03:02:49;;;;;;;10.40;2.38;;;;;;;12.27;100.00;100952.34;5093216;28;20032;-66
2022/11/03 03:05:18;;;;;;;13.73;2.33;;;;;;;12.27;100.00;100949.69;5087747;28;20060;-66
2022/11/03 03:07:47;;;;;;;11.18;1.98;;;;;;;12.29;100.00;100946.22;5085400;28;20032;-66
2022/11/03 03:10:19;;;;;;;11.45;1.98;;;;;;;12.31;100.00;100940.94;5082947;28;20639;-66
2022/11/03 03:12:48;;;;;;;10.02;1.98;;;;;;;12.35;100.00;100942.75;5081376;28;20020;-67
2022/11/03 03:15:15;;;;;;;12.85;2.17;;;;;;;12.31;100.00;100948.84;5079472;28;20077;-65
2022/11/03 03:17:48;;;;;;;11.73;2.20;;;;;;;12.28;100.00;100933.88;5078505;28;20032;-66
2022/11/03 03:20:32;;;;;;;13.35;2.17;;;;;;;12.25;100.00;100935.59;5092649;28;20028;-66
2022/11/03 03:23:01;;;;;;;8.82;2.30;;;;;;;12.29;100.00;100937.41;5081714;28;20039;-65
2022/11/03 03:25:34;;;;;;;14.82;2.45;;;;;;;12.23;100.00;100930.28;5086929;28;20074;-66
2022/11/03 03:28:09;;;;;;;17.88;2.55;;;;;;;12.26;100.00;100937.34;5076575;28;20036;-66
2022/11/03 03:30:36;;;;;;;15.48;2.67;;;;;;;12.26;100.00;100938.25;5081013;28;20080;-65
2022/11/03 03:33:05;;;;;;;11.00;2.58;;;;;;;12.24;100.00;100934.72;5078381;28;20484;-66
2022/11/03 03:35:33;;;;;;;13.48;2.50;;;;;;;12.21;100.00;100928.50;5086321;28;20023;-65
2022/11/03 03:38:03;;;;;;;18.05;2.60;;;;;;;12.24;100.00;100918.88;5091429;28;20038;-66
2022/11/03 03:40:39;;;;;;;17.38;2.35;;;;;;;12.28;100.00;100922.44;5086755;28;20391;-66
2022/11/03 03:43:07;;;;;;;13.52;2.55;;;;;;;12.22;100.00;100919.72;5084090;28;20479;-65
2022/11/03 03:45:34;;;;;;;10.90;1.95;;;;;;;12.30;100.00;100925.97;5088606;28;20136;-67
2022/11/03 03:48:00;;;;;;;15.20;2.50;;;;;;;12.27;100.00;100918.91;5080694;28;20064;-66
2022/11/03 03:50:30;;;;;;;9.90;1.92;;;;;;;12.28;100.00;100925.09;5088829;28;20455;-66
2022/11/03 03:53:05;;;;;;;10.18;2.38;;;;;;;12.29;100.00;100914.53;5081331;28;20028;-66
2022/11/03 03:55:38;;;;;;;13.65;2.03;;;;;;;12.32;100.00;100917.22;5089385;28;20031;-65
2022/11/03 03:58:04;;;;;;;13.32;2.38;;;;;;;12.33;100.00;100912.84;5081931;28;20077;-66
2022/11/03 04:00:30;;;;;;;12.75;2.33;;;;;;;12.34;100.00;100911.94;5085364;28;20729;-66
2022/11/03 04:02:57;;;;;;;10.15;2.33;;;;;;;12.33;100.00;100910.19;5083732;28;20028;-66
2022/11/03 04:05:23;;;;;;;12.25;1.88;;;;;;;12.27;100.00;100897.81;5091346;28;20024;-66
2022/11/03 04:07:49;;;;;;;12.30;2.20;;;;;;;12.26;100.00;100895.16;5079613;28;20036;-66
2022/11/03 04:10:16;;;;;;;14.63;3.15;;;;;;;12.34;100.00;100900.50;5079765;28;20020;-66
2022/11/03 04:23:39;;;;;;;15.52;2.60;;;;;;;12.28;100.00;100893.44;5080459;28;20461;-66
2022/11/03 04:26:11;;;;;;;13.90;2.15;;;;;;;12.26;100.00;100892.50;5090872;28;20107;-66
2022/11/03 04:28:36;;;;;;;10.85;2.47;;;;;;;12.23;100.00;100885.44;5082921;28;20024;-65
2022/11/03 04:31:02;;;;;;;11.52;2.08;;;;;;;12.25;100.00;100877.53;5079953;28;20039;-65
2022/11/03 04:33:28;;;;;;;7.55;1.83;;;;;;;12.26;100.00;100884.59;5088966;28;20027;-65
2022/11/03 04:35:58;;;;;;;14.02;2.38;;;;;;;12.25;100.00;100881.09;5092722;28;20023;-65
2022/11/03 04:38:26;;;;;;;13.40;2.60;;;;;;;12.25;100.00;100866.97;5078005;28;20029;-68
2022/11/03 04:40:56;;;;;;;11.52;2.10;;;;;;;12.23;100.00;100874.03;5074842;28;20040;-65
2022/11/03 04:43:28;;;;;;;14.38;2.63;;;;;;;12.20;100.00;100864.31;5081215;28;20388;-65
2022/11/03 04:45:54;;;;;;;7.35;2.13;;;;;;;12.21;100.00;100852.91;5082800;28;20473;-65
2022/11/03 04:48:25;;;;;;;11.65;1.95;;;;;;;12.17;100.00;100858.13;5085464;28;20024;-66
2022/11/03 04:50:53;;;;;;;8.23;2.30;;;;;;;12.19;100.00;100861.66;5075039;28;20028;-65
2022/11/03 04:53:20;;;;;;;10.70;2.30;;;;;;;12.23;100.00;100856.41;5081973;28;20447;-66
2022/11/03 04:55:49;;;;;;;12.93;2.28;;;;;;;12.20;100.00;100831.78;5090097;28;20023;-65
2022/11/03 04:58:25;;;;;;;12.43;2.28;;;;;;;12.25;100.00;100845.88;5080387;28;20028;-66
2022/11/03 05:00:52;;;;;;;8.43;1.92;;;;;;;12.31;100.00;100836.28;5075447;28;20498;-66
2022/11/03 05:03:24;;;;;;;8.25;2.08;;;;;;;12.29;100.00;100826.59;5087824;28;20054;-66
2022/11/03 05:05:49;;;;;;;14.05;2.33;;;;;;;12.37;100.00;100829.28;5073907;28;20371;-66
2022/11/03 05:08:19;;;;;;;11.57;3.30;;;;;;;12.40;100.00;100824.03;5087448;28;20032;-66
2022/11/03 05:10:44;;;;;;;9.80;2.10;;;;;;;12.43;100.00;100824.94;5077208;28;20033;-66
2022/11/03 05:13:19;;;;;;;5.45;1.83;;;;;;;12.47;100.00;100817.94;5084903;28;20020;-67
2022/11/03 05:15:44;;;;;;;14.68;2.58;;;;;;;12.45;100.00;100804.75;5078590;28;20070;-66
2022/11/03 05:18:18;;;;;;;8.75;1.77;;;;;;;12.44;100.00;100800.34;5077278;28;20028;-66
2022/11/03 05:21:06;;;;;;;15.70;3.80;;;;;;;12.46;100.00;100793.28;5078126;28;20036;-66
2022/11/03 05:23:41;;;;;;;8.68;2.13;;;;;;;12.42;100.00;100807.34;5083591;28;20042;-66
2022/11/03 05:26:13;;;;;;;7.20;2.28;;;;;;;12.45;100.00;100790.66;5088484;28;20472;-66
2022/11/03 05:28:42;;;;;;;10.50;2.83;;;;;;;12.44;100.00;100792.41;5090033;28;20032;-66
2022/11/03 05:31:35;;;;;;;7.80;2.03;;;;;;;12.42;100.00;100782.72;5082810;28;20088;-66
2022/11/03 05:34:10;;;;;;;13.30;2.33;;;;;;;12.38;100.00;100779.16;5083910;28;20125;-67
2022/11/03 05:36:37;;;;;;;10.30;2.15;;;;;;;12.37;100.00;100777.41;5080062;28;20031;-67
2022/11/03 05:39:23;;;;;;;9.38;2.35;;;;;;;12.39;100.00;100773.03;5081014;28;20035;-66
2022/11/03 05:41:49;;;;;;;7.93;2.40;;;;;;;12.39;100.00;100778.28;5080276;28;20024;-66
2022/11/03 05:44:35;;;;;;;10.00;2.70;;;;;;;12.32;100.00;100765.94;5079468;28;20028;-66
2022/11/03 05:47:03;;;;;;;12.35;2.50;;;;;;;12.32;100.00;100763.28;5077978;28;20028;-66
2022/11/03 05:49:29;;;;;;;7.28;2.25;;;;;;;12.34;100.00;100765.94;5072728;28;20020;-67
2022/11/03 05:51:54;;;;;;;14.82;2.85;;;;;;;12.34;100.00;100761.53;5077942;28;20154;-66
2022/11/03 05:54:26;;;;;;;9.20;2.05;;;;;;;12.33;100.00;100751.88;5075059;28;20098;-67
2022/11/03 05:56:51;;;;;;;12.57;2.30;;;;;;;12.27;100.00;100759.72;5089188;28;20527;-66
2022/11/03 05:59:23;;;;;;;6.60;2.17;;;;;;;12.19;100.00;100757.03;5081626;28;20125;-66
2022/11/03 06:01:51;;;;;;;6.40;1.83;;;;;;;12.19;100.00;100753.50;5077443;28;20105;-65
2022/11/03 06:04:27;;;;;;;15.00;2.40;;;;;;;12.18;100.00;100755.28;5080119;28;20368;-65
2022/11/03 06:07:02;;;;;;;9.23;2.47;;;;;;;12.13;100.00;100752.56;5079138;28;20028;-67
2022/11/03 06:09:30;;;;;;;8.10;2.42;;;;;;;12.18;100.00;100749.09;5084938;28;20016;-66
2022/11/03 06:11:59;;;;;;;10.85;2.35;;;;;;;12.13;100.00;100742.03;5089724;28;20430;-65
2022/11/03 06:14:28;;;;;;;8.27;1.98;;;;;;;12.15;100.00;100744.66;5081114;28;20023;-65
2022/11/03 06:17:06;;;;;;;10.65;1.95;;;;;;;12.20;100.00;100744.72;5081724;28;20051;-66
2022/11/03 06:19:35;;;;;;;10.07;2.10;;;;;;;12.19;100.00;100740.31;5083748;28;20094;-66
2022/11/03 06:22:27;;;;;;;11.50;2.97;;;;;;;12.22;100.00;100740.34;5082139;28;20433;-66
2022/11/03 06:25:10;;;;;;;9.20;2.33;;;;;;;12.24;100.00;100736.84;5075566;28;20036;-64
2022/11/03 06:27:35;;;;;;;11.40;2.67;;;;;;;12.22;100.00;100721.88;5088041;28;20061;-66
2022/11/03 06:30:25;;;;;;;11.80;2.22;;;;;;;12.23;100.00;100728.91;5093830;28;20020;-67
2022/11/03 06:32:52;;;;;;;9.93;2.25;;;;;;;12.19;100.00;100729.78;5091881;28;20024;-67
2022/11/03 06:35:17;;;;;;;10.25;1.95;;;;;;;12.16;100.00;100727.13;5089180;28;20146;-67
2022/11/03 06:37:43;;;;;;;11.73;2.33;;;;;;;12.11;100.00;100717.41;5093973;28;20450;-69
2022/11/03 06:40:09;;;;;;;8.43;2.58;;;;;;;12.10;100.00;100720.91;5081411;28;20032;-68
2022/11/03 06:42:34;;;;;;;19.50;4.40;;;;;;;12.04;100.00;100723.47;5078220;28;20135;-69
2022/11/03 06:45:11;;;;;;;12.60;2.88;;;;;;;12.11;100.00;100717.41;5092158;28;20028;-68
2022/11/03 06:47:39;;;;;;;7.30;2.25;;;;;;;12.11;100.00;100714.78;5094903;28;20024;-67
2022/11/03 06:50:20;;;;;;;9.88;2.33;;;;;;;12.13;100.00;100720.94;5089183;28;20371;-68
2022/11/03 06:52:48;;;;;;;7.88;2.13;;;;;;;12.11;100.00;100709.50;5078974;28;20024;-68
2022/11/03 06:55:23;;;;;;;7.68;2.10;;;;;;;12.14;100.00;100711.28;5081356;28;20024;-68
2022/11/03 06:57:54;;;;;;;9.50;2.40;;;;;;;12.13;100.00;100704.22;5081922;28;20036;-69
2022/11/03 07:00:23;;;;;;;10.70;1.90;;;;;;;12.10;100.00;100705.09;5083174;28;20044;-68
2022/11/03 07:02:52;;;;;;;7.72;2.28;;;;;;;12.10;100.00;100712.09;5084682;28;20190;-68
2022/11/03 07:05:36;;;;;;;11.45;2.53;;;;;;;12.11;100.00;100701.59;5086590;28;20528;-68
2022/11/03 07:08:13;;;;;;;14.40;2.72;;;;;;;12.14;100.00;100698.97;5076760;28;20120;-67
2022/11/03 07:10:38;;;;;;;9.10;2.10;;;;;;;12.18;100.00;100702.53;5079499;28;20031;-69
2022/11/03 07:13:13;;;;;;;5.93;2.00;;;;;;;12.18;100.00;100704.25;5081825;28;20023;-67
2022/11/03 07:15:39;;;;;;;11.43;2.20;;;;;;;12.22;100.00;100695.50;5085896;28;20013;-70
2022/11/03 07:18:18;;;;;;;14.65;2.15;;;;;;;12.22;100.00;100690.22;5074222;28;20112;-67
2022/11/03 07:20:43;;;;;;;5.30;2.03;;;;;;;12.23;100.00;100694.63;5074194;28;20039;-67
2022/11/03 07:23:13;;;;;;;8.25;2.20;;;;;;;12.25;100.00;100687.59;5077220;28;20032;-74
2022/11/03 07:25:38;;;;;;;7.47;1.95;;;;;;;12.25;100.00;100677.03;5082531;28;20028;-69
2022/11/03 07:28:04;;;;;;;14.38;2.50;;;;;;;12.29;100.00;100686.78;5084596;28;20145;-69
2022/11/03 07:30:34;;;;;;;7.93;2.42;;;;;;;12.34;100.00;100686.78;5081195;28;20024;-67
2022/11/03 07:33:01;;;;;;;5.97;2.00;;;;;;;12.40;100.00;100698.25;5079866;28;20024;-68
2022/11/03 07:35:33;;;;;;;12.45;1.98;;;;;;;12.37;100.00;100694.72;5080605;28;20494;-69
2022/11/03 07:38:02;;;;;;;10.25;2.05;;;;;;;12.40;100.00;100693.00;5079840;28;20033;-68
2022/11/03 07:40:32;;;;;;;17.48;2.83;;;;;;;12.45;100.00;100691.28;5086760;28;20036;-68
2022/11/03 07:42:59;;;;;;;11.30;2.13;;;;;;;12.50;100.00;100687.78;5092609;28;20020;-69
2022/11/03 07:45:37;;;;;;;13.02;2.60;;;;;;;12.51;100.00;100684.25;5092417;28;20059;-68
2022/11/03 07:48:21;;;;;;;13.30;2.78;;;;;;;12.53;100.00;100693.06;5090697;28;20031;-68
2022/11/03 07:50:49;;;;;;;8.18;1.90;;;;;;;12.58;100.00;100686.06;5089426;28;20580;-68
2022/11/03 07:53:39;;;;;;;6.57;2.50;;;;;;;12.59;100.00;100678.16;5077259;28;20426;-67
2022/11/03 07:56:21;;;;;;;7.22;1.85;;;;;;;12.64;100.00;100675.50;5087430;28;20120;-68
2022/11/03 07:58:51;;;;;;;12.90;2.60;;;;;;;12.66;100.00;100673.78;5080134;28;20029;-68
2022/11/03 08:01:36;;;;;;;9.73;1.88;;;;;;;12.62;100.00;100666.72;5089827;28;20476;-68
2022/11/03 08:04:18;;;;;;;11.15;2.67;;;;;;;12.61;100.00;100655.25;5085113;28;20059;-66
2022/11/03 08:06:44;;;;;;;12.38;2.20;;;;;;;12.63;100.00;100652.66;5075076;28;20464;-68
2022/11/03 08:09:09;;;;;;;13.13;2.08;;;;;;;12.70;100.00;100653.56;5073597;28;20032;-68
2022/11/03 08:11:34;;;;;;;6.05;2.08;;;;;;;12.70;100.00;100653.56;5081809;28;20052;-67
2022/11/03 08:14:00;;;;;;;7.85;2.42;;;;;;;12.69;100.00;100642.13;5085962;28;20028;-67
2022/11/03 08:16:25;;;;;;;9.30;2.40;;;;;;;12.70;100.00;100640.38;5090262;28;20024;-67
2022/11/03 08:18:50;;;;;;;9.93;2.60;;;;;;;12.69;100.00;100626.28;5092090;28;20529;-68
2022/11/03 08:21:16;;;;;;;9.05;2.47;;;;;;;12.71;100.00;100627.19;5088198;28;20036;-66
2022/11/03 08:23:42;;;;;;;14.63;2.17;;;;;;;12.71;100.00;100624.53;5073654;28;20516;-67
2022/11/03 08:26:07;;;;;;;11.77;3.47;;;;;;;12.67;100.00;100622.75;5074231;28;20023;-67
2022/11/03 08:28:33;;;;;;;11.70;2.88;;;;;;;12.70;100.00;100613.97;5086166;28;20468;-68
2022/11/03 08:31:03;;;;;;;13.93;2.05;;;;;;;12.70;100.00;100601.66;5085251;28;20456;-69
2022/11/03 08:33:29;;;;;;;16.02;2.72;;;;;;;12.73;100.00;100599.00;5075298;28;20410;-68
2022/11/03 08:35:54;;;;;;;14.40;2.78;;;;;;;12.73;100.00;100593.72;5082783;28;20030;-69
2022/11/03 08:38:19;;;;;;;13.20;2.88;;;;;;;12.75;100.00;100584.06;5073022;28;20077;-67
2022/11/03 08:40:45;;;;;;;12.98;3.20;;;;;;;12.79;100.00;100570.00;5081246;28;20479;-67
2022/11/03 08:43:10;;;;;;;12.88;2.17;;;;;;;12.86;100.00;100567.34;5072948;28;20531;-68
2022/11/03 08:45:35;;;;;;;9.43;2.35;;;;;;;12.90;100.00;100567.38;5074437;28;20024;-69
2022/11/03 08:48:01;;;;;;;11.55;2.63;;;;;;;12.94;100.00;100557.69;5084711;28;20024;-67
2022/11/03 08:50:26;;;;;;;7.15;2.22;;;;;;;13.00;100.00;100549.78;5079082;28;20099;-67
2022/11/03 08:52:51;;;;;;;11.05;2.85;;;;;;;13.02;100.00;100555.94;5093286;28;20039;-68
2022/11/03 08:55:17;;;;;;;13.18;3.05;;;;;;;13.07;100.00;100556.84;5093325;28;20031;-68
2022/11/03 08:57:42;;;;;;;8.88;2.65;;;;;;;13.08;100.00;100555.97;5093286;28;20023;-67
2022/11/03 09:00:08;;;;;;;10.48;2.78;;;;;;;13.10;100.00;100546.31;5088814;28;20177;-68
2022/11/03 09:02:34;;;;;;;14.85;2.72;;;;;;;13.16;100.00;100548.94;5077797;28;20028;-68
2022/11/03 09:04:59;;;;;;;11.73;2.63;;;;;;;13.22;100.00;100531.31;5083733;28;20380;-68
2022/11/03 09:07:24;;;;;;;8.20;2.78;;;;;;;13.23;100.00;100522.53;5092890;28;20055;-68
2022/11/03 09:09:50;;;;;;;8.85;2.22;;;;;;;13.24;100.00;100518.97;5086466;28;20028;-69
2022/11/03 09:12:15;;;;;;;11.85;2.38;;;;;;;13.29;100.00;100522.50;5084058;28;20042;-68
2022/11/03 09:14:41;;;;;;;17.65;2.72;;;;;;;13.27;100.00;100522.53;5079870;28;20032;-68
2022/11/03 09:17:06;;;;;;;11.80;3.45;;;;;;;13.29;100.00;100507.56;5077199;28;20474;-67
2022/11/03 09:19:31;;;;;;;13.10;2.17;;;;;;;13.36;100.00;100499.66;5081239;28;20032;-68
2022/11/03 09:21:58;;;;;;;14.15;2.40;;;;;;;13.35;100.00;100501.38;5086405;28;20452;-67
2022/11/03 09:24:24;;;;;;;5.75;2.22;;;;;;;13.37;100.00;100507.56;5083672;28;20518;-68
2022/11/03 09:26:50;;;;;;;11.02;2.30;;;;;;;13.36;100.00;100491.72;5082286;28;20031;-70
2022/11/03 09:29:15;;;;;;;11.85;2.17;;;;;;;13.38;100.00;100495.25;5080149;28;20111;-68
2022/11/03 09:31:41;;;;;;;11.80;2.90;;;;;;;13.33;100.00;100487.28;5075507;28;20147;-68
2022/11/03 09:34:06;;;;;;;15.00;2.22;;;;;;;13.33;100.00;100484.63;5087724;28;20012;-68
2022/11/03 09:36:32;;;;;;;16.75;4.50;;;;;;;13.38;100.00;100488.19;5092654;28;20428;-68
2022/11/03 09:38:57;;;;;;;9.07;2.10;;;;;;;13.41;100.00;100485.53;5092559;28;20435;-67
2022/11/03 09:41:22;;;;;;;12.85;2.20;;;;;;;13.49;100.00;100473.19;5091568;28;20151;-68
2022/11/03 09:43:48;;;;;;;14.07;2.65;;;;;;;13.60;100.00;100481.09;5088196;28;20056;-68
2022/11/03 09:46:15;;;;;;;16.10;2.67;;;;;;;13.74;100.00;100478.47;5091311;28;20110;-68
2022/11/03 09:48:41;;;;;;;12.75;2.63;;;;;;;13.80;100.00;100473.13;5082121;28;20024;-68
2022/11/03 09:51:16;;;;;;;11.13;2.60;;;;;;;13.79;100.00;100463.44;5088700;28;20024;-68
2022/11/03 09:53:41;;;;;;;8.77;2.08;;;;;;;13.88;100.00;100459.03;5076449;28;20028;-68
2022/11/03 09:56:09;;;;;;;7.75;2.10;;;;;;;13.87;100.00;100459.91;5086696;28;20070;-68
2022/11/03 09:58:34;;;;;;;13.80;2.25;;;;;;;13.94;100.00;100453.72;5096345;28;20024;-68
2022/11/03 10:01:00;;;;;;;9.18;2.35;;;;;;;13.90;100.00;100452.81;5091835;28;20568;-68
2022/11/03 10:03:26;;;;;;;13.27;2.72;;;;;;;13.93;100.00;100439.63;5088990;28;20460;-67
2022/11/03 10:05:51;;;;;;;14.60;2.28;;;;;;;13.94;100.00;100449.28;5092622;28;20356;-68
2022/11/03 10:08:29;;;;;;;17.48;3.22;;;;;;;13.96;100.00;100444.00;5082648;28;20077;-69
2022/11/03 10:10:55;;;;;;;9.38;2.25;;;;;;;13.91;100.00;100441.38;5086951;28;20032;-68
2022/11/03 10:13:40;;;;;;;13.05;2.28;;;;;;;13.84;100.00;100429.06;5080946;28;20468;-69
2022/11/03 10:16:09;;;;;;;10.95;2.30;;;;;;;13.85;100.00;100420.25;5082536;28;20036;-67
2022/11/03 10:18:35;;;;;;;13.75;2.17;;;;;;;13.89;100.00;100414.06;5095261;28;20032;-68
2022/11/03 10:21:28;;;;;;;13.25;2.10;;;;;;;13.92;100.00;100406.09;5095042;28;20372;-68
2022/11/03 10:23:53;;;;;;;9.55;2.08;;;;;;;13.95;100.00;100402.56;5095934;28;20024;-69
2022/11/03 10:26:20;;;;;;;7.20;2.50;;;;;;;13.99;100.00;100402.53;5093242;28;20027;-68
2022/11/03 10:29:07;;;;;;;14.98;2.38;;;;;;;14.00;100.00;100384.91;5095669;28;20091;-67
2022/11/03 10:31:37;;;;;;;10.05;2.22;;;;;;;14.05;100.00;100391.03;5090076;28;20032;-70
2022/11/03 10:34:03;;;;;;;13.77;2.28;;;;;;;14.05;100.00;100395.47;5075806;28;20474;-67
2022/11/03 10:36:31;;;;;;;4.88;1.70;;;;;;;14.00;100.00;100380.50;5084040;28;20038;-68
2022/11/03 10:38:57;;;;;;;8.73;1.98;;;;;;;14.04;100.00;100381.38;5090269;28;20449;-68
2022/11/03 10:41:29;;;;;;;6.05;2.00;;;;;;;13.93;100.00;100373.47;5080156;28;20048;-68
2022/11/03 10:44:17;;;;;;;15.00;2.40;;;;;;;14.03;100.00;100368.16;5079102;28;20154;-68
2022/11/03 10:46:56;;;;;;;10.27;2.40;;;;;;;14.09;100.00;100368.97;5083225;28;20032;-67
2022/11/03 10:49:21;;;;;;;7.88;2.15;;;;;;;14.13;100.00;100360.16;5095700;28;20026;-68
2022/11/03 10:51:52;;;;;;;10.88;2.25;;;;;;;14.06;100.00;100358.41;5085186;28;20027;-67
2022/11/03 10:54:20;;;;;;;6.95;1.75;;;;;;;14.11;100.00;100343.41;5089380;28;20024;-68
2022/11/03 10:56:47;;;;;;;6.00;1.70;;;;;;;14.20;100.00;100344.22;5085789;28;20046;-67
2022/11/03 10:59:18;;;;;;;6.80;1.60;;;;;;;14.33;100.00;100356.50;5078276;28;20454;-67
2022/11/03 11:01:44;;;;;;;11.48;2.25;;;;;;;14.37;100.00;100330.88;5076568;28;20024;-67
2022/11/03 11:04:15;;;;;;;8.25;1.75;;;;;;;14.43;100.00;100339.66;5082171;28;20028;-68
2022/11/03 11:06:40;;;;;;;10.63;2.15;;;;;;;14.55;100.00;100345.75;5074956;28;20031;-67
2022/11/03 11:09:10;;;;;;;8.05;2.05;;;;;;;14.81;100.00;100342.91;5088253;28;20106;-68
2022/11/03 11:11:36;;;;;;;9.68;2.08;;;;;;;15.15;100.00;100337.28;5078670;28;20020;-68
2022/11/03 11:14:19;;;;;;;7.53;2.00;;;;;;;15.62;100.00;100341.16;5085324;28;20028;-69
2022/11/03 11:16:52;;;;;;;;;;;;;;;16.01;99.26;100343.34;5083321;28;20061;-68
2022/11/03 11:19:19;;;;;;;12.18;2.20;;;;;;;15.96;99.09;100335.44;5095061;28;19919;-68
2022/11/03 11:21:46;;;;;;;8.55;1.92;;;;;;;15.79;98.37;100330.34;5085595;28;20044;-69
2022/11/03 11:24:12;;;;;;;5.68;1.83;;;;;;;15.78;100.00;100333.88;5075715;28;20516;-68
2022/11/03 11:26:38;;;;;;;4.90;2.28;;;;;;;15.60;100.00;100315.53;5085923;28;20059;-69
2022/11/03 11:29:10;;;;;;;5.13;1.50;;;;;;;15.83;99.20;100310.88;5075677;28;20021;-67
2022/11/03 11:31:44;;;;;;;7.25;1.98;;;;;;;15.77;99.61;100302.94;5081551;28;20056;-68
2022/11/03 11:34:11;;;;;;;7.50;2.00;;;;;;;16.00;98.82;100312.41;5080031;28;20021;-69
2022/11/03 11:36:41;;;;;;;5.57;1.73;;;;;;;15.85;100.00;100287.81;5083682;28;20373;-68